sensor_id;sensor_type;location;lat;lon;timestamp;temperature;humidity
12233;DHT22;6179;51.748;8.728;2023-03-01T00:03:16;-0.90;93.50
12233;DHT22;6179;51.748;8.728;2023-03-01T00:09:17;-1.20;94.30
12233;DHT22;6179;51.748;8.728;2023-03-01T00:15:18;-1.10;93.90
12233;DHT22;6179;51.748;8.728;2023-03-01T00:21:20;-1.00;93.80
12233;DHT22;6179;51.748;8.728;2023-03-01T00:27:24;-0.90;93.20
12233;DHT22;6179;51.748;8.728;2023-03-01T00:33:25;-1.30;94.00
12233;DHT22;6179;51.748;8.728;2023-03-01T00:39:26;-0.90;93.10
12233;DHT22;6179;51.748;8.728;2023-03-01T00:45:27;-0.70;92.20
12233;DHT22;6179;51.748;8.728;2023-03-01T00:51:29;-1.30;93.00
12233;DHT22;6179;51.748;8.728;2023-03-01T00:57:30;-1.70;94.40
12233;DHT22;6179;51.748;8.728;2023-03-01T01:03:31;-1.70;94.70
12233;DHT22;6179;51.748;8.728;2023-03-01T01:09:32;-1.80;94.80
12233;DHT22;6179;51.748;8.728;2023-03-01T01:15:35;-1.70;95.10
12233;DHT22;6179;51.748;8.728;2023-03-01T01:21:37;-2.00;95.60
12233;DHT22;6179;51.748;8.728;2023-03-01T01:27:38;-2.10;95.90
12233;DHT22;6179;51.748;8.728;2023-03-01T01:33:39;-2.30;96.10
12233;DHT22;6179;51.748;8.728;2023-03-01T01:39:39;-2.20;96.40
12233;DHT22;6179;51.748;8.728;2023-03-01T01:45:41;-2.10;96.00
12233;DHT22;6179;51.748;8.728;2023-03-01T01:51:44;-2.00;96.40
12233;DHT22;6179;51.748;8.728;2023-03-01T01:58:01;-1.90;95.30
12233;DHT22;6179;51.748;8.728;2023-03-01T02:04:04;-1.80;94.80
12233;DHT22;6179;51.748;8.728;2023-03-01T02:10:07;-2.00;95.70
12233;DHT22;6179;51.748;8.728;2023-03-01T02:16:11;-2.20;95.90
12233;DHT22;6179;51.748;8.728;2023-03-01T02:22:26;-2.30;96.60
12233;DHT22;6179;51.748;8.728;2023-03-01T02:28:30;-2.40;96.90
12233;DHT22;6179;51.748;8.728;2023-03-01T02:34:35;-2.60;98.00
12233;DHT22;6179;51.748;8.728;2023-03-01T02:40:37;-2.30;97.20
12233;DHT22;6179;51.748;8.728;2023-03-01T02:46:48;-1.80;94.80
12233;DHT22;6179;51.748;8.728;2023-03-01T02:59:39;-1.90;94.80
12233;DHT22;6179;51.748;8.728;2023-03-01T03:05:41;-2.00;95.30
12233;DHT22;6179;51.748;8.728;2023-03-01T03:11:42;-2.10;94.70
12233;DHT22;6179;51.748;8.728;2023-03-01T03:17:43;-2.40;95.30
12233;DHT22;6179;51.748;8.728;2023-03-01T03:23:44;-2.80;96.00
12233;DHT22;6179;51.748;8.728;2023-03-01T03:29:45;-3.10;97.10
12233;DHT22;6179;51.748;8.728;2023-03-01T03:35:48;-3.10;97.50
12233;DHT22;6179;51.748;8.728;2023-03-01T03:41:49;-3.10;97.30
12233;DHT22;6179;51.748;8.728;2023-03-01T03:47:50;-3.30;98.00
12233;DHT22;6179;51.748;8.728;2023-03-01T03:53:51;-3.50;98.30
12233;DHT22;6179;51.748;8.728;2023-03-01T03:59:52;-3.50;98.30
12233;DHT22;6179;51.748;8.728;2023-03-01T04:05:53;-3.60;98.30
12233;DHT22;6179;51.748;8.728;2023-03-01T04:11:57;-3.50;98.30
12233;DHT22;6179;51.748;8.728;2023-03-01T04:17:58;-3.50;98.30
12233;DHT22;6179;51.748;8.728;2023-03-01T04:23:59;-3.30;98.30
12233;DHT22;6179;51.748;8.728;2023-03-01T04:30:00;-3.30;98.30
12233;DHT22;6179;51.748;8.728;2023-03-01T04:36:02;-3.30;98.30
12233;DHT22;6179;51.748;8.728;2023-03-01T04:42:05;-3.20;98.30
12233;DHT22;6179;51.748;8.728;2023-03-01T04:48:06;-3.30;98.30
12233;DHT22;6179;51.748;8.728;2023-03-01T04:54:07;-3.20;98.30
12233;DHT22;6179;51.748;8.728;2023-03-01T05:00:11;-3.20;98.30
12233;DHT22;6179;51.748;8.728;2023-03-01T05:06:22;-3.30;98.30
12233;DHT22;6179;51.748;8.728;2023-03-01T05:12:23;-3.30;98.30
12233;DHT22;6179;51.748;8.728;2023-03-01T05:18:24;-3.30;98.30
12233;DHT22;6179;51.748;8.728;2023-03-01T05:24:27;-3.30;98.30
12233;DHT22;6179;51.748;8.728;2023-03-01T05:30:33;-3.30;98.30
12233;DHT22;6179;51.748;8.728;2023-03-01T05:36:34;-3.30;98.20
12233;DHT22;6179;51.748;8.728;2023-03-01T05:42:35;-3.60;98.30
12233;DHT22;6179;51.748;8.728;2023-03-01T05:48:36;-3.80;98.30
12233;DHT22;6179;51.748;8.728;2023-03-01T05:54:37;-3.90;98.30
12233;DHT22;6179;51.748;8.728;2023-03-01T06:00:39;-4.00;98.30
12233;DHT22;6179;51.748;8.728;2023-03-01T06:06:40;-3.90;98.30
12233;DHT22;6179;51.748;8.728;2023-03-01T06:12:41;-3.70;98.30
12233;DHT22;6179;51.748;8.728;2023-03-01T06:18:42;-3.60;98.30
12233;DHT22;6179;51.748;8.728;2023-03-01T06:24:43;-3.50;98.30
12233;DHT22;6179;51.748;8.728;2023-03-01T06:30:44;-3.10;98.30
12233;DHT22;6179;51.748;8.728;2023-03-01T06:36:46;-3.50;98.30
12233;DHT22;6179;51.748;8.728;2023-03-01T06:42:50;-3.60;98.30
12233;DHT22;6179;51.748;8.728;2023-03-01T06:48:51;-3.60;98.30
12233;DHT22;6179;51.748;8.728;2023-03-01T06:54:52;-3.60;98.30
12233;DHT22;6179;51.748;8.728;2023-03-01T07:00:53;-3.60;98.30
12233;DHT22;6179;51.748;8.728;2023-03-01T07:06:54;-3.20;98.30
12233;DHT22;6179;51.748;8.728;2023-03-01T07:12:56;-3.20;98.30
12233;DHT22;6179;51.748;8.728;2023-03-01T07:18:58;-3.00;98.30
12233;DHT22;6179;51.748;8.728;2023-03-01T07:24:59;-2.80;98.30
12233;DHT22;6179;51.748;8.728;2023-03-01T07:31:03;-2.20;98.30
12233;DHT22;6179;51.748;8.728;2023-03-01T07:37:04;-1.80;98.30
12233;DHT22;6179;51.748;8.728;2023-03-01T07:43:05;-1.40;98.20
12233;DHT22;6179;51.748;8.728;2023-03-01T07:49:06;-1.10;97.60
12233;DHT22;6179;51.748;8.728;2023-03-01T07:55:07;-0.70;96.80
12233;DHT22;6179;51.748;8.728;2023-03-01T08:01:19;-0.30;96.30
12233;DHT22;6179;51.748;8.728;2023-03-01T08:07:21;-0.20;94.10
12233;DHT22;6179;51.748;8.728;2023-03-01T08:13:22;0.10;92.60
12233;DHT22;6179;51.748;8.728;2023-03-01T08:19:23;0.20;90.00
12233;DHT22;6179;51.748;8.728;2023-03-01T08:25:24;0.20;89.60
12233;DHT22;6179;51.748;8.728;2023-03-01T08:31:31;0.70;89.70
12233;DHT22;6179;51.748;8.728;2023-03-01T08:37:35;1.30;86.10
12233;DHT22;6179;51.748;8.728;2023-03-01T08:43:36;1.50;85.10
12233;DHT22;6179;51.748;8.728;2023-03-01T08:49:37;2.10;84.10
12233;DHT22;6179;51.748;8.728;2023-03-01T08:55:38;2.10;84.30
12233;DHT22;6179;51.748;8.728;2023-03-01T09:01:39;2.40;81.30
12233;DHT22;6179;51.748;8.728;2023-03-01T09:07:40;2.30;80.80
12233;DHT22;6179;51.748;8.728;2023-03-01T09:13:42;2.90;79.80
12233;DHT22;6179;51.748;8.728;2023-03-01T09:19:43;3.20;78.80
12233;DHT22;6179;51.748;8.728;2023-03-01T09:25:44;3.10;79.20
12233;DHT22;6179;51.748;8.728;2023-03-01T09:31:44;3.50;76.10
12233;DHT22;6179;51.748;8.728;2023-03-01T09:37:45;3.40;76.60
12233;DHT22;6179;51.748;8.728;2023-03-01T09:50:22;3.50;76.40
12233;DHT22;6179;51.748;8.728;2023-03-01T09:56:34;3.50;75.30
12233;DHT22;6179;51.748;8.728;2023-03-01T10:02:51;3.50;74.00
12233;DHT22;6179;51.748;8.728;2023-03-01T10:09:07;3.80;74.50
12233;DHT22;6179;51.748;8.728;2023-03-01T10:15:19;3.90;72.60
12233;DHT22;6179;51.748;8.728;2023-03-01T10:21:26;3.80;73.20
12233;DHT22;6179;51.748;8.728;2023-03-01T10:27:40;3.90;73.00
12233;DHT22;6179;51.748;8.728;2023-03-01T10:33:42;4.10;73.40
12233;DHT22;6179;51.748;8.728;2023-03-01T10:40:05;4.20;71.00
12233;DHT22;6179;51.748;8.728;2023-03-01T10:46:30;4.20;72.00
12233;DHT22;6179;51.748;8.728;2023-03-01T10:52:37;4.60;71.40
12233;DHT22;6179;51.748;8.728;2023-03-01T11:05:18;4.60;72.30
12233;DHT22;6179;51.748;8.728;2023-03-01T11:11:26;4.90;72.00
12233;DHT22;6179;51.748;8.728;2023-03-01T11:17:32;4.80;71.60
12233;DHT22;6179;51.748;8.728;2023-03-01T11:23:39;4.60;72.50
12233;DHT22;6179;51.748;8.728;2023-03-01T11:29:46;5.10;70.80
12233;DHT22;6179;51.748;8.728;2023-03-01T11:36:02;5.40;72.40
12233;DHT22;6179;51.748;8.728;2023-03-01T11:42:44;5.40;70.60
12233;DHT22;6179;51.748;8.728;2023-03-01T11:55:29;5.90;68.50
12233;DHT22;6179;51.748;8.728;2023-03-01T12:08:42;5.50;68.90
12233;DHT22;6179;51.748;8.728;2023-03-01T12:41:13;6.10;66.30
12233;DHT22;6179;51.748;8.728;2023-03-01T12:54:26;6.30;65.20
12233;DHT22;6179;51.748;8.728;2023-03-01T13:00:37;6.40;66.60
12233;DHT22;6179;51.748;8.728;2023-03-01T13:13:34;6.80;66.40
12233;DHT22;6179;51.748;8.728;2023-03-01T13:19:35;6.50;65.90
12233;DHT22;6179;51.748;8.728;2023-03-01T13:31:57;6.80;66.30
12233;DHT22;6179;51.748;8.728;2023-03-01T13:44:47;6.90;64.50
12233;DHT22;6179;51.748;8.728;2023-03-01T13:50:52;6.60;63.90
12233;DHT22;6179;51.748;8.728;2023-03-01T13:56:59;6.90;64.10
12233;DHT22;6179;51.748;8.728;2023-03-01T14:15:34;7.20;62.40
12233;DHT22;6179;51.748;8.728;2023-03-01T14:21:40;7.40;62.20
12233;DHT22;6179;51.748;8.728;2023-03-01T14:27:41;7.50;62.50
12233;DHT22;6179;51.748;8.728;2023-03-01T14:33:43;7.40;63.40
12233;DHT22;6179;51.748;8.728;2023-03-01T14:39:56;7.30;63.10
12233;DHT22;6179;51.748;8.728;2023-03-01T14:45:58;7.10;64.00
12233;DHT22;6179;51.748;8.728;2023-03-01T14:52:02;6.90;65.90
12233;DHT22;6179;51.748;8.728;2023-03-01T14:58:09;7.00;66.60
12233;DHT22;6179;51.748;8.728;2023-03-01T15:04:13;7.00;65.70
12233;DHT22;6179;51.748;8.728;2023-03-01T15:10:23;7.40;64.80
12233;DHT22;6179;51.748;8.728;2023-03-01T15:16:31;7.20;65.50
12233;DHT22;6179;51.748;8.728;2023-03-01T15:22:35;7.20;65.30
12233;DHT22;6179;51.748;8.728;2023-03-01T15:28:41;7.20;65.50
12233;DHT22;6179;51.748;8.728;2023-03-01T15:34:49;7.30;65.50
12233;DHT22;6179;51.748;8.728;2023-03-01T15:40:51;6.90;66.50
12233;DHT22;6179;51.748;8.728;2023-03-01T15:46:52;6.50;68.00
12233;DHT22;6179;51.748;8.728;2023-03-01T15:52:53;6.70;67.50
12233;DHT22;6179;51.748;8.728;2023-03-01T15:58:59;6.90;67.70
12233;DHT22;6179;51.748;8.728;2023-03-01T16:05:02;6.70;68.40
12233;DHT22;6179;51.748;8.728;2023-03-01T16:11:05;6.40;68.50
12233;DHT22;6179;51.748;8.728;2023-03-01T16:17:14;6.20;69.90
12233;DHT22;6179;51.748;8.728;2023-03-01T16:23:15;6.00;70.20
12233;DHT22;6179;51.748;8.728;2023-03-01T16:29:16;5.90;71.00
12233;DHT22;6179;51.748;8.728;2023-03-01T16:35:20;5.70;71.00
12233;DHT22;6179;51.748;8.728;2023-03-01T16:41:23;5.70;70.90
12233;DHT22;6179;51.748;8.728;2023-03-01T16:47:25;5.70;71.30
12233;DHT22;6179;51.748;8.728;2023-03-01T16:53:26;5.60;71.30
12233;DHT22;6179;51.748;8.728;2023-03-01T16:59:27;5.60;70.80
12233;DHT22;6179;51.748;8.728;2023-03-01T17:05:28;5.20;71.60
12233;DHT22;6179;51.748;8.728;2023-03-01T17:11:29;4.90;72.60
12233;DHT22;6179;51.748;8.728;2023-03-01T17:17:30;4.70;73.10
12233;DHT22;6179;51.748;8.728;2023-03-01T17:23:32;5.00;72.20
12233;DHT22;6179;51.748;8.728;2023-03-01T17:29:33;4.80;73.20
12233;DHT22;6179;51.748;8.728;2023-03-01T17:35:35;4.40;74.10
12233;DHT22;6179;51.748;8.728;2023-03-01T17:41:37;4.10;74.20
12233;DHT22;6179;51.748;8.728;2023-03-01T17:47:38;4.00;75.10
12233;DHT22;6179;51.748;8.728;2023-03-01T17:53:38;3.80;75.30
12233;DHT22;6179;51.748;8.728;2023-03-01T17:59:39;3.60;76.00
12233;DHT22;6179;51.748;8.728;2023-03-01T18:05:40;3.30;77.10
12233;DHT22;6179;51.748;8.728;2023-03-01T18:11:41;3.30;77.60
12233;DHT22;6179;51.748;8.728;2023-03-01T18:17:43;3.40;77.80
12233;DHT22;6179;51.748;8.728;2023-03-01T18:23:44;3.50;77.90
12233;DHT22;6179;51.748;8.728;2023-03-01T18:29:45;3.50;78.10
12233;DHT22;6179;51.748;8.728;2023-03-01T18:35:45;3.50;78.20
12233;DHT22;6179;51.748;8.728;2023-03-01T18:41:48;3.40;78.20
12233;DHT22;6179;51.748;8.728;2023-03-01T18:47:49;3.40;78.30
12233;DHT22;6179;51.748;8.728;2023-03-01T18:53:50;3.20;78.90
12233;DHT22;6179;51.748;8.728;2023-03-01T18:59:51;3.10;78.90
12233;DHT22;6179;51.748;8.728;2023-03-01T19:05:51;3.40;77.90
12233;DHT22;6179;51.748;8.728;2023-03-01T19:11:52;3.30;78.20
12233;DHT22;6179;51.748;8.728;2023-03-01T19:17:58;2.90;77.70
12233;DHT22;6179;51.748;8.728;2023-03-01T19:23:59;2.90;75.70
12233;DHT22;6179;51.748;8.728;2023-03-01T19:30:01;2.70;75.00
12233;DHT22;6179;51.748;8.728;2023-03-01T19:36:03;2.70;75.00
12233;DHT22;6179;51.748;8.728;2023-03-01T19:42:04;3.10;73.40
12233;DHT22;6179;51.748;8.728;2023-03-01T19:48:05;2.80;75.20
12233;DHT22;6179;51.748;8.728;2023-03-01T19:54:06;2.70;76.70
12233;DHT22;6179;51.748;8.728;2023-03-01T20:00:09;2.60;77.10
12233;DHT22;6179;51.748;8.728;2023-03-01T20:06:16;2.70;76.90
12233;DHT22;6179;51.748;8.728;2023-03-01T20:12:19;2.40;77.00
12233;DHT22;6179;51.748;8.728;2023-03-01T20:18:20;1.90;79.10
12233;DHT22;6179;51.748;8.728;2023-03-01T20:24:21;1.60;80.40
12233;DHT22;6179;51.748;8.728;2023-03-01T20:30:22;1.50;80.60
12233;DHT22;6179;51.748;8.728;2023-03-01T20:36:23;1.70;80.40
12233;DHT22;6179;51.748;8.728;2023-03-01T20:42:24;1.70;80.10
12233;DHT22;6179;51.748;8.728;2023-03-01T20:48:25;1.30;82.20
12233;DHT22;6179;51.748;8.728;2023-03-01T20:54:26;1.50;82.00
12233;DHT22;6179;51.748;8.728;2023-03-01T21:00:27;1.90;81.40
12233;DHT22;6179;51.748;8.728;2023-03-01T21:06:28;1.70;80.90
12233;DHT22;6179;51.748;8.728;2023-03-01T21:12:29;1.50;82.40
12233;DHT22;6179;51.748;8.728;2023-03-01T21:18:32;1.40;82.20
12233;DHT22;6179;51.748;8.728;2023-03-01T21:24:35;1.50;81.30
12233;DHT22;6179;51.748;8.728;2023-03-01T21:30:36;1.70;80.60
12233;DHT22;6179;51.748;8.728;2023-03-01T21:36:37;1.50;80.40
12233;DHT22;6179;51.748;8.728;2023-03-01T21:42:38;1.40;81.00
12233;DHT22;6179;51.748;8.728;2023-03-01T21:48:41;1.60;80.60
12233;DHT22;6179;51.748;8.728;2023-03-01T21:54:44;1.60;80.40
12233;DHT22;6179;51.748;8.728;2023-03-01T22:00:46;1.50;80.50
12233;DHT22;6179;51.748;8.728;2023-03-01T22:06:47;1.30;80.80
12233;DHT22;6179;51.748;8.728;2023-03-01T22:12:48;1.30;80.70
12233;DHT22;6179;51.748;8.728;2023-03-01T22:18:49;1.60;80.10
12233;DHT22;6179;51.748;8.728;2023-03-01T22:24:50;1.60;80.60
12233;DHT22;6179;51.748;8.728;2023-03-01T22:30:51;1.40;80.60
12233;DHT22;6179;51.748;8.728;2023-03-01T22:36:52;0.80;82.10
12233;DHT22;6179;51.748;8.728;2023-03-01T22:42:53;0.40;84.30
12233;DHT22;6179;51.748;8.728;2023-03-01T22:48:54;0.00;85.80
12233;DHT22;6179;51.748;8.728;2023-03-01T22:54:55;-0.10;86.70
12233;DHT22;6179;51.748;8.728;2023-03-01T23:00:56;-0.30;87.20
12233;DHT22;6179;51.748;8.728;2023-03-01T23:06:57;-0.20;87.10
12233;DHT22;6179;51.748;8.728;2023-03-01T23:12:57;-0.20;86.70
12233;DHT22;6179;51.748;8.728;2023-03-01T23:18:58;-0.30;87.40
12233;DHT22;6179;51.748;8.728;2023-03-01T23:24:59;-0.50;88.90
12233;DHT22;6179;51.748;8.728;2023-03-01T23:31:03;-0.40;88.70
12233;DHT22;6179;51.748;8.728;2023-03-01T23:37:05;-0.40;88.80
12233;DHT22;6179;51.748;8.728;2023-03-01T23:43:07;-0.80;90.30
12233;DHT22;6179;51.748;8.728;2023-03-01T23:49:10;-0.40;88.50
12233;DHT22;6179;51.748;8.728;2023-03-01T23:55:14;-0.20;88.00
